createdAt,value
2022-09-01T00:00:50.515Z,101554.47
2022-09-01T00:05:55.441Z,101563.59
2022-09-01T00:10:57.598Z,101549.25
2022-09-01T00:16:01.335Z,101552.13
2022-09-01T00:21:03.326Z,101550.44
2022-09-01T00:26:05.927Z,101557.50
2022-09-01T00:31:08.977Z,101553.28
2022-09-01T00:36:10.901Z,101561.22
2022-09-01T00:41:14.656Z,101559.34
2022-09-01T00:46:21.996Z,101562.38
2022-09-01T00:51:24.795Z,101568.78
2022-09-01T00:56:26.961Z,101563.38
2022-09-01T01:01:29.017Z,101565.91
2022-09-01T01:06:33.377Z,101568.13
2022-09-01T01:11:36.220Z,101565.59
2022-09-01T01:16:45.471Z,101564.41
2022-09-01T01:22:06.285Z,101563.75
2022-09-01T01:27:08.505Z,101565.59
2022-09-01T01:32:13.294Z,101558.34
2022-09-01T01:37:15.608Z,101562.88
2022-09-01T01:42:18.258Z,101562.72
2022-09-01T01:47:20.763Z,101558.50
2022-09-01T01:52:26.181Z,101564.75
2022-09-01T01:57:33.308Z,101559.50
2022-09-01T02:02:35.504Z,101557.66
2022-09-01T02:07:42.564Z,101554.13
2022-09-01T02:12:44.648Z,101554.13
2022-09-01T02:17:47.316Z,101548.72
2022-09-01T02:22:52.206Z,101548.91
2022-09-01T02:27:55.714Z,101551.59
2022-09-01T02:32:58.895Z,101541.66
2022-09-01T02:38:01.935Z,101543.00
2022-09-01T02:43:03.978Z,101541.66
2022-09-01T02:48:10.540Z,101541.81
2022-09-01T02:53:15.600Z,101534.56
2022-09-01T02:58:20.372Z,101536.44
2022-09-01T03:03:27.245Z,101530.19
2022-09-01T03:08:31.893Z,101533.72
2022-09-01T03:13:34.350Z,101519.41
2022-09-01T03:18:37.033Z,101531.03
2022-09-01T03:23:39.288Z,101528.34
2022-09-01T03:28:41.500Z,101523.09
2022-09-01T03:33:44.830Z,101516.53
2022-09-01T03:38:56.066Z,101515.53
2022-09-01T03:43:59.545Z,101507.59
2022-09-01T03:49:06.796Z,101506.44
2022-09-01T03:54:12.145Z,101508.44
2022-09-01T03:59:17.406Z,101501.03
2022-09-01T04:04:21.413Z,101502.72
2022-09-01T04:09:23.549Z,101498.84
2022-09-01T04:14:30.517Z,101494.28
2022-09-01T04:19:39.818Z,101501.38
2022-09-01T04:24:46.016Z,101496.31
2022-09-01T04:29:48.668Z,101493.78
2022-09-01T04:34:51.164Z,101488.91
2022-09-01T04:39:56.866Z,101492.09
2022-09-01T04:45:09.962Z,101495.13
2022-09-01T04:50:17.927Z,101493.63
2022-09-01T04:55:43.988Z,101490.94
2022-09-01T05:00:48.607Z,101491.25
2022-09-01T05:05:54.323Z,101490.41
2022-09-01T05:10:57.477Z,101497.50
2022-09-01T05:16:24.103Z,101494.63
2022-09-01T05:21:30.014Z,101487.56
2022-09-01T05:26:34.790Z,101494.63
2022-09-01T05:31:38.378Z,101496.66
2022-09-01T05:36:46.428Z,101500.19
2022-09-01T05:41:50.089Z,101501.88
2022-09-01T05:46:53.894Z,101498.16
2022-09-01T05:51:59.032Z,101506.25
2022-09-01T05:57:23.332Z,101504.72
2022-09-01T06:02:27.565Z,101502.03
2022-09-01T06:07:32.695Z,101503.06
2022-09-01T06:12:36.242Z,101506.59
2022-09-01T06:17:38.386Z,101506.59
2022-09-01T06:22:41.334Z,101508.13
2022-09-01T06:27:46.017Z,101512.81
2022-09-01T06:32:49.909Z,101502.88
2022-09-01T06:37:53.011Z,101508.13
2022-09-01T06:43:17.560Z,101509.81
2022-09-01T06:48:24.100Z,101498.00
2022-09-01T06:53:32.721Z,101510.13
2022-09-01T06:58:38.427Z,101516.22
2022-09-01T07:03:40.560Z,101524.94
2022-09-01T07:14:19.628Z,101521.09
2022-09-01T07:19:22.072Z,101517.38
2022-09-01T07:24:31.963Z,101528.00
2022-09-01T07:29:56.428Z,101526.16
2022-09-01T07:34:58.621Z,101518.56
2022-09-01T07:45:35.460Z,101515.22
2022-09-01T07:56:11.482Z,101543.69
2022-09-01T08:01:23.312Z,101551.59
2022-09-01T08:06:27.939Z,101556.66
2022-09-01T08:16:54.229Z,101565.75
2022-09-01T08:21:57.693Z,101567.44
2022-09-01T08:27:10.309Z,101559.34
2022-09-01T08:32:12.524Z,101557.50
2022-09-01T08:37:14.699Z,101548.41
2022-09-01T08:42:22.306Z,101553.78
2022-09-01T08:47:39.331Z,101552.94
2022-09-01T08:53:28.580Z,101560.03
2022-09-01T08:58:32.597Z,101561.72
2022-09-01T09:03:51.921Z,101568.97
2022-09-01T09:09:03.642Z,101564.59
2022-09-01T09:14:28.607Z,101559.03
2022-09-01T09:19:36.106Z,101555.28
2022-09-01T09:24:48.252Z,101565.06
2022-09-01T09:29:56.762Z,101572.50
2022-09-01T09:35:17.111Z,101568.63
2022-09-01T09:40:27.253Z,101561.53
2022-09-01T09:45:41.860Z,101562.75
2022-09-01T09:50:44.468Z,101566.44
2022-09-01T09:56:19.688Z,101556.66
2022-09-01T10:01:26.120Z,101556.81
2022-09-01T10:06:33.473Z,101558.50
2022-09-01T10:11:41.965Z,101560.38
2022-09-01T10:16:48.159Z,101558.84
2022-09-01T10:21:50.726Z,101553.81
2022-09-01T10:26:57.399Z,101565.44
2022-09-01T10:32:30.497Z,101565.94
2022-09-01T10:37:24.344Z,101552.44
2022-09-01T10:42:28.325Z,101552.63
2022-09-01T10:47:38.076Z,101542.66
2022-09-01T10:52:43.177Z,101537.25
2022-09-01T10:58:09.308Z,101538.94
2022-09-01T11:03:40.889Z,101532.69
2022-09-01T11:08:57.664Z,101521.91
2022-09-01T11:14:00.871Z,101517.88
2022-09-01T11:19:31.739Z,101527.31
2022-09-01T11:24:40.404Z,101520.91
2022-09-01T11:29:56.586Z,101520.91
2022-09-01T11:35:03.654Z,101521.75
2022-09-01T11:40:10.526Z,101526.13
2022-09-01T11:45:23.690Z,101526.13
2022-09-01T11:50:34.342Z,101524.81
2022-09-01T11:55:44.956Z,101528.84
2022-09-01T12:00:47.779Z,101530.69
2022-09-01T12:06:00.574Z,101515.66
2022-09-01T12:11:08.798Z,101515.50
2022-09-01T12:16:18.524Z,101511.78
2022-09-01T12:21:33.918Z,101503.69
2022-09-01T12:26:36.051Z,101497.63
2022-09-01T12:31:43.399Z,101512.63
2022-09-01T12:37:09.980Z,101509.94
2022-09-01T12:42:38.939Z,101521.56
2022-09-01T12:47:48.442Z,101520.56
2022-09-01T12:53:04.348Z,101517.03
2022-09-01T12:58:09.200Z,101515.16
2022-09-01T13:03:18.219Z,101517.03
2022-09-01T13:08:23.287Z,101508.75
2022-09-01T13:13:26.833Z,101504.19
2022-09-01T13:18:29.650Z,101504.19
2022-09-01T13:23:32.211Z,101505.88
2022-09-01T13:28:36.371Z,101499.63
2022-09-01T13:39:03.299Z,101506.72
2022-09-01T13:44:05.398Z,101491.38
2022-09-01T13:49:42.153Z,101479.72
2022-09-01T13:54:29.763Z,101478.88
2022-09-01T13:59:33.188Z,101467.91
2022-09-01T14:04:35.299Z,101452.25
2022-09-01T14:09:38.099Z,101457.28
2022-09-01T14:20:03.305Z,101454.09
2022-09-01T14:25:05.984Z,101445.16
2022-09-01T14:30:10.107Z,101449.34
2022-09-01T14:35:12.538Z,101448.34
2022-09-01T14:40:17.176Z,101433.81
2022-09-01T14:45:22.947Z,101424.88
2022-09-01T14:50:25.774Z,101421.34
2022-09-01T14:55:30.310Z,101417.63
2022-09-01T15:00:36.119Z,101419.13
2022-09-01T15:05:39.830Z,101412.06
2022-09-01T15:10:42.537Z,101407.31
2022-09-01T15:15:44.742Z,101405.47
2022-09-01T15:20:47.025Z,101398.38
2022-09-01T15:25:52.496Z,101397.19
2022-09-01T15:30:54.741Z,101391.78
2022-09-01T15:35:56.847Z,101370.19
2022-09-01T15:41:00.229Z,101365.84
2022-09-01T15:46:04.562Z,101354.56
2022-09-01T15:51:26.601Z,101360.34
2022-09-01T15:56:28.837Z,101354.75
2022-09-01T16:01:34.674Z,101366.69
2022-09-01T16:06:36.770Z,101356.41
2022-09-01T16:11:40.329Z,101346.38
2022-09-01T16:16:42.420Z,101344.72
2022-09-01T16:22:10.664Z,101348.00
2022-09-01T16:27:17.001Z,101343.63
2022-09-01T16:32:21.675Z,101334.50
2022-09-01T16:37:55.652Z,101339.75
2022-09-01T16:43:09.514Z,101345.78
2022-09-01T16:48:26.909Z,101344.88
2022-09-01T16:54:24.948Z,101340.69
2022-09-01T16:59:51.859Z,101344.88
2022-09-01T17:05:05.219Z,101341.50
2022-09-01T17:10:25.496Z,101317.13
2022-09-01T17:15:41.012Z,101333.22
2022-09-01T17:20:54.994Z,101335.09
2022-09-01T17:26:05.101Z,101331.19
2022-09-01T17:31:14.733Z,101323.09
2022-09-01T17:36:51.868Z,101312.00
2022-09-01T17:42:38.666Z,101327.41
2022-09-01T17:48:07.859Z,101328.97
2022-09-01T17:53:41.068Z,101331.22
2022-09-01T17:58:56.443Z,101343.56
2022-09-01T18:04:36.051Z,101337.34
2022-09-01T18:09:45.907Z,101327.56
2022-09-01T18:15:11.323Z,101320.13
2022-09-01T18:20:27.449Z,101318.63
2022-09-01T18:25:39.707Z,101326.00
2022-09-01T18:30:59.926Z,101342.38
2022-09-01T18:36:07.952Z,101340.50
2022-09-01T18:41:43.493Z,101346.94
2022-09-01T18:46:55.308Z,101362.13
2022-09-01T18:52:09.354Z,101364.81
2022-09-01T18:57:21.242Z,101367.84
2022-09-01T19:02:48.397Z,101362.47
2022-09-01T19:07:56.106Z,101377.94
2022-09-01T19:13:18.194Z,101374.78
2022-09-01T19:18:29.853Z,101391.09
2022-09-01T19:23:47.650Z,101390.81
2022-09-01T19:28:54.539Z,101409.53
2022-09-01T19:34:25.633Z,101403.94
2022-09-01T19:39:38.433Z,101422.19
2022-09-01T19:44:49.123Z,101424.91
2022-09-01T19:50:09.509Z,101435.34
2022-09-01T19:55:29.176Z,101434.66
2022-09-01T20:00:53.672Z,101430.31
2022-09-01T20:06:05.010Z,101430.31
2022-09-01T20:11:43.368Z,101432.34
2022-09-01T20:16:49.889Z,101441.44
2022-09-01T20:21:52.179Z,101447.16
2022-09-01T20:27:05.514Z,101430.09
2022-09-01T20:32:10.454Z,101439.91
2022-09-01T20:37:36.829Z,101433.19
2022-09-01T20:43:12.928Z,101433.88
2022-09-01T20:48:18.478Z,101441.66
2022-09-01T20:53:36.299Z,101431.56
2022-09-01T20:58:53.015Z,101440.84
2022-09-01T21:04:17.180Z,101444.91
2022-09-01T21:09:25.870Z,101443.56
2022-09-01T21:14:49.149Z,101448.66
2022-09-01T21:20:09.982Z,101453.41
2022-09-01T21:25:12.290Z,101435.31
2022-09-01T21:30:15.351Z,101435.31
2022-09-01T21:35:20.028Z,101434.84
2022-09-01T21:40:25.569Z,101435.19
2022-09-01T21:45:28.105Z,101430.81
2022-09-01T21:50:30.510Z,101407.41
2022-09-01T21:55:32.719Z,101419.34
2022-09-01T22:00:39.534Z,101411.41
2022-09-01T22:05:45.146Z,101430.31
2022-09-01T22:10:49.934Z,101408.72
2022-09-01T22:15:53.742Z,101394.38
2022-09-01T22:21:07.612Z,101431.31
2022-09-01T22:26:17.653Z,101410.25
2022-09-01T22:31:21.598Z,101402.47
2022-09-01T22:36:36.988Z,101409.09
2022-09-01T22:41:41.204Z,101433.69
2022-09-01T22:46:43.258Z,101415.63
2022-09-01T22:51:45.645Z,101399.59
2022-09-01T22:56:49.979Z,101409.22
2022-09-01T23:01:52.055Z,101384.25
2022-09-01T23:06:54.642Z,101389.50
2022-09-01T23:11:57.003Z,101389.66
2022-09-01T23:16:59.110Z,101364.53
2022-09-01T23:22:01.367Z,101378.88
2022-09-01T23:27:03.693Z,101374.47
2022-09-01T23:32:05.895Z,101392.34
2022-09-01T23:37:08.157Z,101402.13
2022-09-01T23:42:10.590Z,101397.75
2022-09-01T23:47:12.691Z,101412.94
2022-09-01T23:52:15.278Z,101410.41
2022-09-01T23:57:17.394Z,101404.00
